AAL305 KEYW-KDFW
Flight info
| Callsign | AAL305 |
|---|---|
| Flight time | 2h 52m |
| Altitude | 36000 |
| Route | BUFTT1 GUFFS THMPR Y290 BACCA ROZZI Y280 REDFN HRV PNUTS BEREE3 |
| Aircraft | A319/M-SDE3FGHIRWY/LB1 |
Departure
| Time | 2026-05-05 18:29 |
|---|---|
| Airport | Key West International Airport (KEYW) |
Arrival
| Time | 2026-05-05 21:22 |
|---|---|
| Airport | Dallas Fort Worth International Airport (KDFW) |
| Time | Latitude | Longitude | Altitude | Speed | Heading |
|---|---|---|---|---|---|
| 2026-05-05 16:50 | 24.55442 | -81.75344 | 13 ft | 0 kts | 212° |
| 2026-05-05 16:54 | 24.55442 | -81.75345 | 13 ft | 0 kts | 212° |
| 2026-05-05 16:54 | 24.55442 | -81.75344 | 12 ft | 0 kts | 212° |
| 2026-05-05 17:11 | 24.55443 | -81.75344 | 12 ft | 0 kts | 212° |
| 2026-05-05 18:23 | 24.55445 | -81.75343 | 14 ft | 3 kts | 212° |
| 2026-05-05 18:23 | 24.55462 | -81.75331 | 13 ft | 3 kts | 212° |
| 2026-05-05 18:23 | 24.55480 | -81.75319 | 13 ft | 3 kts | 211° |
| 2026-05-05 18:24 | 24.55486 | -81.75310 | 12 ft | 0 kts | 280° |
| 2026-05-05 18:25 | 24.55486 | -81.75311 | 12 ft | 1 kts | 280° |
| 2026-05-05 18:26 | 24.55507 | -81.75314 | 12 ft | 8 kts | 353° |
| 2026-05-05 18:26 | 24.55531 | -81.75385 | 12 ft | 14 kts | 271° |
| 2026-05-05 18:26 | 24.55531 | -81.75494 | 12 ft | 15 kts | 270° |
| 2026-05-05 18:26 | 24.55529 | -81.75611 | 12 ft | 16 kts | 268° |
| 2026-05-05 18:27 | 24.55527 | -81.75736 | 14 ft | 17 kts | 270° |
| 2026-05-05 18:27 | 24.55527 | -81.75871 | 15 ft | 19 kts | 270° |
| 2026-05-05 18:27 | 24.55526 | -81.76024 | 12 ft | 20 kts | 269° |
| 2026-05-05 18:27 | 24.55523 | -81.76185 | 12 ft | 21 kts | 270° |
| 2026-05-05 18:28 | 24.55522 | -81.76514 | 11 ft | 22 kts | 270° |
| 2026-05-05 18:28 | 24.55520 | -81.76620 | 12 ft | 11 kts | 272° |
| 2026-05-05 18:28 | 24.55580 | -81.76665 | 11 ft | 12 kts | 9° |
| 2026-05-05 18:29 | 24.55607 | -81.76582 | 11 ft | 14 kts | 89° |
| 2026-05-05 18:29 | 24.55611 | -81.76255 | 10 ft | 85 kts | 89° |
| 2026-05-05 18:29 | 24.55618 | -81.75315 | 52 ft | 152 kts | 91° |
| 2026-05-05 18:29 | 24.55675 | -81.74131 | 686 ft | 160 kts | 82° |
| 2026-05-05 18:30 | 24.56213 | -81.73066 | 1408 ft | 167 kts | 40° |
| 2026-05-05 18:30 | 24.57308 | -81.72537 | 2010 ft | 183 kts | 5° |
| 2026-05-05 18:30 | 24.58629 | -81.72470 | 2475 ft | 197 kts | 1° |
| 2026-05-05 18:30 | 24.60076 | -81.72423 | 2786 ft | 219 kts | 1° |
| 2026-05-05 18:31 | 24.61669 | -81.72364 | 3174 ft | 240 kts | 1° |
| 2026-05-05 18:31 | 24.63419 | -81.72288 | 3640 ft | 262 kts | 1° |
| 2026-05-05 18:31 | 24.65269 | -81.72201 | 4539 ft | 268 kts | 1° |
| 2026-05-05 18:31 | 24.67143 | -81.72108 | 5470 ft | 272 kts | 1° |
| 2026-05-05 18:32 | 24.69050 | -81.72010 | 6382 ft | 276 kts | 1° |
| 2026-05-05 18:32 | 24.70969 | -81.71734 | 7242 ft | 283 kts | 14° |
| 2026-05-05 18:32 | 24.72786 | -81.70844 | 8095 ft | 290 kts | 32° |
| 2026-05-05 18:32 | 24.74308 | -81.69371 | 8925 ft | 295 kts | 46° |
| 2026-05-05 18:33 | 24.75718 | -81.67705 | 9747 ft | 299 kts | 46° |
| 2026-05-05 18:33 | 24.77150 | -81.66023 | 10526 ft | 303 kts | 45° |
| 2026-05-05 18:33 | 24.78636 | -81.64284 | 10952 ft | 323 kts | 45° |
| 2026-05-05 18:33 | 24.80238 | -81.62416 | 11197 ft | 347 kts | 45° |
| 2026-05-05 18:34 | 24.82002 | -81.60481 | 11393 ft | 369 kts | 38° |
| 2026-05-05 18:34 | 24.84175 | -81.58851 | 11592 ft | 386 kts | 25° |
| 2026-05-05 18:34 | 24.86677 | -81.57738 | 12134 ft | 391 kts | 15° |
| 2026-05-05 18:34 | 24.89273 | -81.56816 | 12814 ft | 395 kts | 15° |
| 2026-05-05 18:35 | 24.91902 | -81.55869 | 13520 ft | 398 kts | 15° |
| 2026-05-05 18:35 | 24.94535 | -81.54913 | 14219 ft | 400 kts | 15° |
| 2026-05-05 18:35 | 24.97149 | -81.53960 | 14901 ft | 402 kts | 15° |
| 2026-05-05 18:35 | 24.99808 | -81.52990 | 15575 ft | 403 kts | 15° |
| 2026-05-05 18:36 | 25.02480 | -81.52020 | 16226 ft | 406 kts | 14° |
| 2026-05-05 18:36 | 25.05208 | -81.51034 | 16891 ft | 408 kts | 14° |
| 2026-05-05 18:36 | 25.07867 | -81.50072 | 17501 ft | 410 kts | 14° |
| 2026-05-05 18:36 | 25.10583 | -81.49090 | 18112 ft | 411 kts | 14° |
| 2026-05-05 18:37 | 25.13312 | -81.48102 | 18681 ft | 414 kts | 14° |
| 2026-05-05 18:37 | 25.16061 | -81.47106 | 19199 ft | 417 kts | 13° |
| 2026-05-05 18:37 | 25.18827 | -81.46101 | 19663 ft | 421 kts | 13° |
| 2026-05-05 18:37 | 25.21624 | -81.45085 | 20096 ft | 425 kts | 13° |
| 2026-05-05 18:38 | 25.24444 | -81.44063 | 20533 ft | 429 kts | 13° |
| 2026-05-05 18:38 | 25.27284 | -81.43032 | 20950 ft | 432 kts | 13° |
| 2026-05-05 18:38 | 25.30156 | -81.41987 | 21363 ft | 436 kts | 13° |
| 2026-05-05 18:38 | 25.33043 | -81.40937 | 21762 ft | 439 kts | 13° |
| 2026-05-05 18:39 | 25.35956 | -81.39879 | 22148 ft | 442 kts | 13° |
| 2026-05-05 18:39 | 25.38890 | -81.38811 | 22513 ft | 445 kts | 13° |
| 2026-05-05 18:39 | 25.41845 | -81.37740 | 22877 ft | 447 kts | 12° |
| 2026-05-05 18:39 | 25.44864 | -81.37036 | 23212 ft | 443 kts | 1° |
| 2026-05-05 18:40 | 25.47909 | -81.36979 | 23559 ft | 439 kts | 350° |
| 2026-05-05 18:40 | 25.50919 | -81.37563 | 23904 ft | 435 kts | 340° |
| 2026-05-05 18:40 | 25.53734 | -81.38738 | 24250 ft | 432 kts | 330° |
| 2026-05-05 18:40 | 25.56332 | -81.40404 | 24598 ft | 431 kts | 325° |
| 2026-05-05 18:41 | 25.58884 | -81.42155 | 24954 ft | 433 kts | 324° |
| 2026-05-05 18:41 | 25.61451 | -81.43922 | 25301 ft | 435 kts | 325° |
| 2026-05-05 18:41 | 25.64024 | -81.45693 | 25636 ft | 436 kts | 325° |
| 2026-05-05 18:41 | 25.66609 | -81.47470 | 25989 ft | 438 kts | 325° |
| 2026-05-05 18:42 | 25.69202 | -81.49252 | 26310 ft | 439 kts | 325° |
| 2026-05-05 18:42 | 25.71806 | -81.51035 | 26643 ft | 441 kts | 325° |
| 2026-05-05 18:42 | 25.74417 | -81.52824 | 26952 ft | 443 kts | 325° |
| 2026-05-05 18:42 | 25.77035 | -81.54622 | 27385 ft | 441 kts | 325° |
| 2026-05-05 18:43 | 25.79640 | -81.56411 | 27865 ft | 439 kts | 325° |
| 2026-05-05 18:43 | 25.82228 | -81.58194 | 28347 ft | 437 kts | 325° |
| 2026-05-05 18:43 | 25.84807 | -81.59975 | 28841 ft | 435 kts | 325° |
| 2026-05-05 18:43 | 25.87372 | -81.61742 | 29330 ft | 433 kts | 325° |
| 2026-05-05 18:44 | 25.89898 | -81.63542 | 29817 ft | 430 kts | 323° |
| 2026-05-05 18:44 | 25.92309 | -81.65397 | 30305 ft | 427 kts | 322° |
| 2026-05-05 18:44 | 25.94731 | -81.67360 | 30831 ft | 423 kts | 321° |
| 2026-05-05 18:44 | 25.97051 | -81.69285 | 31364 ft | 420 kts | 321° |
| 2026-05-05 18:45 | 25.99374 | -81.71217 | 31921 ft | 415 kts | 321° |
| 2026-05-05 18:45 | 26.01678 | -81.73117 | 32520 ft | 410 kts | 321° |
| 2026-05-05 18:45 | 26.03965 | -81.74981 | 33097 ft | 405 kts | 322° |
| 2026-05-05 18:45 | 26.06228 | -81.76810 | 33671 ft | 400 kts | 322° |
| 2026-05-05 18:46 | 26.08469 | -81.78612 | 34239 ft | 395 kts | 322° |
| 2026-05-05 18:46 | 26.10681 | -81.80386 | 34789 ft | 390 kts | 322° |
| 2026-05-05 18:46 | 26.12875 | -81.82149 | 35266 ft | 387 kts | 322° |
| 2026-05-05 18:46 | 26.15051 | -81.83901 | 35667 ft | 386 kts | 323° |
| 2026-05-05 18:47 | 26.17226 | -81.85654 | 35992 ft | 386 kts | 323° |
| 2026-05-05 18:47 | 26.19398 | -81.87409 | 36062 ft | 387 kts | 322° |
| 2026-05-05 18:47 | 26.23759 | -81.90946 | 36061 ft | 389 kts | 322° |
| 2026-05-05 18:48 | 26.28133 | -81.94490 | 36061 ft | 388 kts | 322° |
| 2026-05-05 18:48 | 26.32504 | -81.98032 | 36051 ft | 389 kts | 322° |
| 2026-05-05 18:49 | 26.36880 | -82.01569 | 36050 ft | 389 kts | 322° |
| 2026-05-05 18:49 | 26.41259 | -82.05117 | 36061 ft | 389 kts | 322° |
| 2026-05-05 18:50 | 26.45636 | -82.08669 | 36056 ft | 389 kts | 322° |
| 2026-05-05 18:50 | 26.50009 | -82.12230 | 36056 ft | 389 kts | 322° |
| 2026-05-05 18:51 | 26.54385 | -82.15798 | 36063 ft | 389 kts | 322° |
| 2026-05-05 18:51 | 26.58744 | -82.19353 | 36061 ft | 389 kts | 322° |
| 2026-05-05 18:52 | 26.63133 | -82.22928 | 36053 ft | 389 kts | 322° |
| 2026-05-05 18:52 | 26.67468 | -82.26469 | 36062 ft | 389 kts | 322° |
| 2026-05-05 18:53 | 26.71839 | -82.30037 | 36063 ft | 389 kts | 322° |
| 2026-05-05 18:53 | 26.76179 | -82.33652 | 36067 ft | 388 kts | 317° |
| 2026-05-05 18:54 | 26.79747 | -82.38150 | 36070 ft | 387 kts | 310° |
| 2026-05-05 18:54 | 26.83170 | -82.42813 | 36067 ft | 387 kts | 310° |
| 2026-05-05 18:55 | 26.86598 | -82.47460 | 36065 ft | 387 kts | 310° |
| 2026-05-05 18:55 | 26.90023 | -82.52115 | 36060 ft | 387 kts | 310° |
| 2026-05-05 18:56 | 26.93447 | -82.56777 | 36063 ft | 387 kts | 310° |
| 2026-05-05 18:56 | 26.96866 | -82.61440 | 36060 ft | 387 kts | 310° |
| 2026-05-05 18:57 | 27.00288 | -82.66113 | 36064 ft | 387 kts | 309° |
| 2026-05-05 18:57 | 27.03709 | -82.70770 | 36062 ft | 387 kts | 309° |
| 2026-05-05 18:58 | 27.07123 | -82.75442 | 36063 ft | 387 kts | 309° |
| 2026-05-05 18:58 | 27.09954 | -82.79331 | 36062 ft | 387 kts | 309° |
| 2026-05-05 18:59 | 27.13058 | -82.84266 | 36070 ft | 389 kts | 297° |
| 2026-05-05 18:59 | 27.14597 | -82.90117 | 36074 ft | 394 kts | 286° |
| 2026-05-05 19:00 | 27.15742 | -82.96129 | 36066 ft | 394 kts | 286° |
| 2026-05-05 19:00 | 27.16894 | -83.02151 | 36066 ft | 394 kts | 287° |
| 2026-05-05 19:01 | 27.18046 | -83.08174 | 36067 ft | 395 kts | 286° |
| 2026-05-05 19:01 | 27.19197 | -83.14206 | 36068 ft | 395 kts | 286° |
| 2026-05-05 19:02 | 27.20341 | -83.20234 | 36073 ft | 395 kts | 286° |
| 2026-05-05 19:02 | 27.21490 | -83.26266 | 36070 ft | 395 kts | 286° |
| 2026-05-05 19:03 | 27.22626 | -83.32290 | 36074 ft | 395 kts | 286° |
| 2026-05-05 19:03 | 27.23762 | -83.38324 | 36066 ft | 395 kts | 286° |
| 2026-05-05 19:04 | 27.24898 | -83.44367 | 36068 ft | 395 kts | 286° |
| 2026-05-05 19:04 | 27.26033 | -83.50404 | 36065 ft | 394 kts | 286° |
| 2026-05-05 19:05 | 27.27159 | -83.56427 | 36062 ft | 394 kts | 286° |
| 2026-05-05 19:05 | 27.28286 | -83.62461 | 36060 ft | 394 kts | 286° |
| 2026-05-05 19:06 | 27.29403 | -83.68486 | 36060 ft | 394 kts | 286° |
| 2026-05-05 19:06 | 27.30515 | -83.74483 | 36060 ft | 394 kts | 286° |
| 2026-05-05 19:07 | 27.31635 | -83.80516 | 36059 ft | 394 kts | 286° |
| 2026-05-05 19:07 | 27.32752 | -83.86532 | 36063 ft | 394 kts | 286° |
| 2026-05-05 19:08 | 27.33860 | -83.92539 | 36059 ft | 394 kts | 286° |
| 2026-05-05 19:08 | 27.34973 | -83.98608 | 36065 ft | 394 kts | 285° |
| 2026-05-05 19:09 | 27.36068 | -84.04595 | 36062 ft | 394 kts | 285° |
| 2026-05-05 19:09 | 27.37173 | -84.10632 | 36063 ft | 394 kts | 285° |
| 2026-05-05 19:10 | 27.38258 | -84.16669 | 36065 ft | 394 kts | 285° |
| 2026-05-05 19:10 | 27.39352 | -84.22713 | 36067 ft | 394 kts | 285° |
| 2026-05-05 19:11 | 27.40445 | -84.28757 | 36065 ft | 394 kts | 285° |
| 2026-05-05 19:11 | 27.41534 | -84.34803 | 36071 ft | 394 kts | 285° |
| 2026-05-05 19:12 | 27.42632 | -84.40848 | 36071 ft | 394 kts | 285° |
| 2026-05-05 19:12 | 27.43734 | -84.46889 | 36067 ft | 394 kts | 285° |
| 2026-05-05 19:13 | 27.44818 | -84.52941 | 36067 ft | 394 kts | 285° |
| 2026-05-05 19:13 | 27.45901 | -84.58995 | 36062 ft | 395 kts | 285° |
| 2026-05-05 19:14 | 27.46984 | -84.65056 | 36061 ft | 395 kts | 285° |
| 2026-05-05 19:14 | 27.48062 | -84.71120 | 36062 ft | 395 kts | 285° |
| 2026-05-05 19:15 | 27.49138 | -84.77190 | 36062 ft | 395 kts | 285° |
| 2026-05-05 19:15 | 27.50214 | -84.83270 | 36060 ft | 396 kts | 285° |
| 2026-05-05 19:16 | 27.51284 | -84.89316 | 36064 ft | 396 kts | 285° |
| 2026-05-05 19:16 | 27.52364 | -84.95438 | 36062 ft | 396 kts | 285° |
| 2026-05-05 19:17 | 27.53429 | -85.01487 | 36062 ft | 396 kts | 285° |
| 2026-05-05 19:17 | 27.54492 | -85.07581 | 36068 ft | 396 kts | 285° |
| 2026-05-05 19:18 | 27.55562 | -85.13676 | 36064 ft | 396 kts | 285° |
| 2026-05-05 19:18 | 27.56632 | -85.19776 | 36064 ft | 397 kts | 285° |
| 2026-05-05 19:19 | 27.57692 | -85.25876 | 36069 ft | 397 kts | 284° |
| 2026-05-05 19:19 | 27.58754 | -85.31979 | 36072 ft | 396 kts | 287° |
| 2026-05-05 19:20 | 27.60885 | -85.37615 | 36071 ft | 391 kts | 302° |
| 2026-05-05 19:20 | 27.63719 | -85.42851 | 36066 ft | 391 kts | 302° |
| 2026-05-05 19:21 | 27.66537 | -85.48094 | 36068 ft | 391 kts | 302° |
| 2026-05-05 19:21 | 27.69354 | -85.53344 | 36064 ft | 391 kts | 301° |
| 2026-05-05 19:22 | 27.72179 | -85.58604 | 36067 ft | 392 kts | 301° |
| 2026-05-05 19:22 | 27.74994 | -85.63868 | 36072 ft | 391 kts | 301° |
| 2026-05-05 19:23 | 27.77814 | -85.69119 | 36073 ft | 391 kts | 301° |
| 2026-05-05 19:23 | 27.80630 | -85.74382 | 36073 ft | 391 kts | 301° |
| 2026-05-05 19:24 | 27.83446 | -85.79651 | 36073 ft | 391 kts | 301° |
| 2026-05-05 19:24 | 27.86242 | -85.84895 | 36071 ft | 391 kts | 301° |
| 2026-05-05 19:25 | 27.89056 | -85.90169 | 36074 ft | 390 kts | 301° |
| 2026-05-05 19:25 | 27.91837 | -85.95391 | 36070 ft | 390 kts | 301° |
| 2026-05-05 19:26 | 27.94629 | -86.00650 | 36058 ft | 390 kts | 301° |
| 2026-05-05 19:26 | 27.97420 | -86.05904 | 36064 ft | 390 kts | 301° |
| 2026-05-05 19:27 | 28.00213 | -86.11174 | 36063 ft | 390 kts | 301° |
| 2026-05-05 19:27 | 28.03012 | -86.16446 | 36059 ft | 391 kts | 301° |
| 2026-05-05 19:28 | 28.05802 | -86.21721 | 36060 ft | 391 kts | 301° |
| 2026-05-05 19:28 | 28.08590 | -86.27002 | 36060 ft | 391 kts | 301° |
| 2026-05-05 19:29 | 28.11373 | -86.32286 | 36062 ft | 390 kts | 301° |
| 2026-05-05 19:29 | 28.14154 | -86.37564 | 36061 ft | 390 kts | 301° |
| 2026-05-05 19:30 | 28.16930 | -86.42839 | 36065 ft | 390 kts | 301° |
| 2026-05-05 19:30 | 28.19704 | -86.48117 | 36059 ft | 389 kts | 301° |
| 2026-05-05 19:31 | 28.22473 | -86.53383 | 36053 ft | 389 kts | 301° |
| 2026-05-05 19:31 | 28.25238 | -86.58662 | 36058 ft | 389 kts | 301° |
| 2026-05-05 19:32 | 28.27993 | -86.63925 | 36060 ft | 388 kts | 301° |
| 2026-05-05 19:32 | 28.30747 | -86.69201 | 36053 ft | 388 kts | 300° |
| 2026-05-05 19:33 | 28.32726 | -86.74896 | 36051 ft | 389 kts | 290° |
| 2026-05-05 19:33 | 28.34426 | -86.80721 | 36053 ft | 389 kts | 290° |
| 2026-05-05 19:34 | 28.36138 | -86.86549 | 36060 ft | 389 kts | 290° |
| 2026-05-05 19:35 | 28.38688 | -86.95288 | 36066 ft | 389 kts | 290° |
| 2026-05-05 19:35 | 28.40384 | -87.01109 | 36063 ft | 388 kts | 290° |
| 2026-05-05 19:36 | 28.42075 | -87.06930 | 36061 ft | 388 kts | 290° |
| 2026-05-05 19:36 | 28.43764 | -87.12760 | 36060 ft | 388 kts | 290° |
| 2026-05-05 19:37 | 28.45451 | -87.18577 | 36061 ft | 388 kts | 290° |
| 2026-05-05 19:37 | 28.47129 | -87.24402 | 36062 ft | 388 kts | 290° |
| 2026-05-05 19:38 | 28.48804 | -87.30199 | 36058 ft | 388 kts | 290° |
| 2026-05-05 19:38 | 28.50491 | -87.36062 | 36056 ft | 388 kts | 290° |
| 2026-05-05 19:39 | 28.52156 | -87.41851 | 36060 ft | 388 kts | 290° |
| 2026-05-05 19:39 | 28.53836 | -87.47720 | 36063 ft | 388 kts | 290° |
| 2026-05-05 19:40 | 28.55496 | -87.53516 | 36053 ft | 388 kts | 290° |
| 2026-05-05 19:40 | 28.57181 | -87.59394 | 36050 ft | 388 kts | 290° |
| 2026-05-05 19:41 | 28.58840 | -87.65195 | 36048 ft | 389 kts | 289° |
| 2026-05-05 19:41 | 28.60508 | -87.71038 | 36055 ft | 389 kts | 289° |
| 2026-05-05 19:42 | 28.62170 | -87.76892 | 36056 ft | 389 kts | 289° |
| 2026-05-05 19:42 | 28.63834 | -87.82745 | 36048 ft | 389 kts | 289° |
| 2026-05-05 19:43 | 28.65489 | -87.88603 | 36054 ft | 389 kts | 289° |
| 2026-05-05 19:43 | 28.67142 | -87.94464 | 36055 ft | 389 kts | 289° |
| 2026-05-05 19:44 | 28.68801 | -88.00316 | 36055 ft | 388 kts | 289° |
| 2026-05-05 19:44 | 28.70457 | -88.06178 | 36056 ft | 388 kts | 289° |
| 2026-05-05 19:45 | 28.72104 | -88.12036 | 36053 ft | 389 kts | 289° |
| 2026-05-05 19:45 | 28.73475 | -88.16912 | 36057 ft | 389 kts | 289° |
| 2026-05-05 19:46 | 28.75115 | -88.22772 | 36058 ft | 389 kts | 289° |
| 2026-05-05 19:46 | 28.76755 | -88.28647 | 36058 ft | 389 kts | 289° |
| 2026-05-05 19:47 | 28.78396 | -88.34513 | 36060 ft | 388 kts | 289° |
| 2026-05-05 19:47 | 28.80030 | -88.40374 | 36064 ft | 388 kts | 289° |
| 2026-05-05 19:48 | 28.81653 | -88.46235 | 36058 ft | 388 kts | 289° |
| 2026-05-05 19:48 | 28.83283 | -88.52101 | 36060 ft | 388 kts | 289° |
| 2026-05-05 19:49 | 28.84909 | -88.57964 | 36063 ft | 388 kts | 289° |
| 2026-05-05 19:49 | 28.86530 | -88.63833 | 36058 ft | 387 kts | 289° |
| 2026-05-05 19:50 | 28.88363 | -88.69591 | 36052 ft | 386 kts | 298° |
| 2026-05-05 19:50 | 28.91586 | -88.74512 | 36051 ft | 388 kts | 308° |
| 2026-05-05 19:51 | 28.95107 | -88.79183 | 36055 ft | 388 kts | 308° |
| 2026-05-05 19:51 | 28.98627 | -88.83867 | 36055 ft | 388 kts | 308° |
| 2026-05-05 19:52 | 29.02150 | -88.88546 | 36056 ft | 389 kts | 308° |
| 2026-05-05 19:52 | 29.05680 | -88.93231 | 36053 ft | 389 kts | 308° |
| 2026-05-05 19:53 | 29.09193 | -88.97917 | 36054 ft | 388 kts | 308° |
| 2026-05-05 19:53 | 29.12707 | -89.02607 | 36051 ft | 388 kts | 308° |
| 2026-05-05 19:54 | 29.16216 | -89.07290 | 36049 ft | 388 kts | 308° |
| 2026-05-05 19:54 | 29.19725 | -89.11983 | 36046 ft | 388 kts | 308° |
| 2026-05-05 19:55 | 29.23227 | -89.16684 | 36037 ft | 388 kts | 308° |
| 2026-05-05 19:55 | 29.26733 | -89.21385 | 36036 ft | 388 kts | 308° |
| 2026-05-05 19:56 | 29.30236 | -89.26083 | 36035 ft | 388 kts | 308° |
| 2026-05-05 19:56 | 29.33740 | -89.30779 | 36033 ft | 387 kts | 308° |
| 2026-05-05 19:57 | 29.37236 | -89.35472 | 36035 ft | 387 kts | 308° |
| 2026-05-05 19:57 | 29.40727 | -89.40172 | 36034 ft | 387 kts | 307° |
| 2026-05-05 19:58 | 29.44209 | -89.44872 | 36031 ft | 387 kts | 307° |
| 2026-05-05 19:58 | 29.47695 | -89.49577 | 36029 ft | 387 kts | 307° |
| 2026-05-05 19:59 | 29.51177 | -89.54273 | 36027 ft | 386 kts | 307° |
| 2026-05-05 19:59 | 29.54654 | -89.58972 | 36024 ft | 386 kts | 307° |
| 2026-05-05 20:00 | 29.58127 | -89.63669 | 36023 ft | 386 kts | 307° |
| 2026-05-05 20:00 | 29.61592 | -89.68374 | 36023 ft | 385 kts | 307° |
| 2026-05-05 20:01 | 29.65053 | -89.73074 | 36023 ft | 385 kts | 307° |
| 2026-05-05 20:01 | 29.68514 | -89.77774 | 36023 ft | 385 kts | 307° |
| 2026-05-05 20:02 | 29.71947 | -89.82438 | 36023 ft | 384 kts | 307° |
| 2026-05-05 20:02 | 29.75419 | -89.87168 | 36023 ft | 384 kts | 307° |
| 2026-05-05 20:03 | 29.78839 | -89.91837 | 36023 ft | 384 kts | 307° |
| 2026-05-05 20:03 | 29.82277 | -89.96537 | 36018 ft | 383 kts | 307° |
| 2026-05-05 20:04 | 29.85572 | -90.01342 | 36012 ft | 381 kts | 299° |
| 2026-05-05 20:04 | 29.88275 | -90.06584 | 36008 ft | 380 kts | 299° |
| 2026-05-05 20:05 | 29.90994 | -90.11817 | 36006 ft | 381 kts | 299° |
| 2026-05-05 20:05 | 29.93708 | -90.17046 | 36001 ft | 380 kts | 299° |
| 2026-05-05 20:06 | 29.96424 | -90.22285 | 35994 ft | 380 kts | 299° |
| 2026-05-05 20:06 | 29.99130 | -90.27528 | 35993 ft | 381 kts | 299° |
| 2026-05-05 20:07 | 30.01841 | -90.32782 | 35990 ft | 381 kts | 299° |
| 2026-05-05 20:07 | 30.04537 | -90.38030 | 35991 ft | 380 kts | 299° |
| 2026-05-05 20:08 | 30.07241 | -90.43285 | 35998 ft | 380 kts | 299° |
| 2026-05-05 20:08 | 30.09937 | -90.48531 | 35994 ft | 380 kts | 299° |
| 2026-05-05 20:09 | 30.12635 | -90.53784 | 35992 ft | 380 kts | 299° |
| 2026-05-05 20:09 | 30.15329 | -90.59037 | 35997 ft | 380 kts | 299° |
| 2026-05-05 20:10 | 30.18018 | -90.64299 | 35993 ft | 380 kts | 298° |
| 2026-05-05 20:10 | 30.20699 | -90.69564 | 35997 ft | 380 kts | 298° |
| 2026-05-05 20:11 | 30.23381 | -90.74820 | 35989 ft | 379 kts | 298° |
| 2026-05-05 20:11 | 30.26060 | -90.80076 | 35992 ft | 379 kts | 298° |
| 2026-05-05 20:12 | 30.28738 | -90.85334 | 35988 ft | 379 kts | 298° |
| 2026-05-05 20:12 | 30.31413 | -90.90597 | 35993 ft | 379 kts | 298° |
| 2026-05-05 20:13 | 30.34082 | -90.95863 | 35990 ft | 379 kts | 298° |
| 2026-05-05 20:13 | 30.36753 | -91.01120 | 35985 ft | 379 kts | 298° |
| 2026-05-05 20:14 | 30.39414 | -91.06389 | 35986 ft | 379 kts | 298° |
| 2026-05-05 20:14 | 30.42067 | -91.11662 | 35978 ft | 379 kts | 298° |
| 2026-05-05 20:15 | 30.44732 | -91.16935 | 35984 ft | 379 kts | 298° |
| 2026-05-05 20:15 | 30.47393 | -91.22205 | 35978 ft | 379 kts | 298° |
| 2026-05-05 20:16 | 30.50050 | -91.27484 | 35977 ft | 379 kts | 298° |
| 2026-05-05 20:16 | 30.52704 | -91.32766 | 35974 ft | 379 kts | 298° |
| 2026-05-05 20:17 | 30.55362 | -91.38050 | 35970 ft | 379 kts | 298° |
| 2026-05-05 20:17 | 30.58016 | -91.43337 | 35966 ft | 379 kts | 298° |
| 2026-05-05 20:18 | 30.60643 | -91.48592 | 35963 ft | 379 kts | 298° |
| 2026-05-05 20:18 | 30.63291 | -91.53886 | 35957 ft | 379 kts | 298° |
| 2026-05-05 20:19 | 30.65938 | -91.59187 | 35953 ft | 379 kts | 297° |
| 2026-05-05 20:19 | 30.68579 | -91.64485 | 35951 ft | 379 kts | 298° |
| 2026-05-05 20:20 | 30.71223 | -91.69787 | 35950 ft | 379 kts | 298° |
| 2026-05-05 20:20 | 30.73864 | -91.75096 | 35952 ft | 379 kts | 297° |
| 2026-05-05 20:21 | 30.76493 | -91.80404 | 35952 ft | 379 kts | 297° |
| 2026-05-05 20:21 | 30.79123 | -91.85712 | 35952 ft | 379 kts | 297° |
| 2026-05-05 20:22 | 30.81754 | -91.91014 | 35955 ft | 378 kts | 297° |
| 2026-05-05 20:22 | 30.84380 | -91.96314 | 35959 ft | 378 kts | 297° |
| 2026-05-05 20:23 | 30.86994 | -92.01619 | 35956 ft | 378 kts | 297° |
| 2026-05-05 20:23 | 30.89606 | -92.06930 | 35952 ft | 378 kts | 297° |
| 2026-05-05 20:24 | 30.92222 | -92.12238 | 35940 ft | 378 kts | 297° |
| 2026-05-05 20:24 | 30.94839 | -92.17543 | 35941 ft | 378 kts | 297° |
| 2026-05-05 20:25 | 30.97437 | -92.22859 | 35942 ft | 377 kts | 297° |
| 2026-05-05 20:25 | 31.00026 | -92.28166 | 35940 ft | 377 kts | 297° |
| 2026-05-05 20:26 | 31.02609 | -92.33447 | 35942 ft | 377 kts | 297° |
| 2026-05-05 20:26 | 31.05206 | -92.38748 | 35943 ft | 377 kts | 297° |
| 2026-05-05 20:27 | 31.07805 | -92.44052 | 35943 ft | 376 kts | 297° |
| 2026-05-05 20:27 | 31.10389 | -92.49354 | 35937 ft | 376 kts | 297° |
| 2026-05-05 20:28 | 31.12965 | -92.54659 | 35932 ft | 375 kts | 297° |
| 2026-05-05 20:28 | 31.15536 | -92.59959 | 35929 ft | 375 kts | 297° |
| 2026-05-05 20:29 | 31.18118 | -92.65260 | 35926 ft | 375 kts | 297° |
| 2026-05-05 20:29 | 31.20686 | -92.70549 | 35925 ft | 375 kts | 296° |
| 2026-05-05 20:30 | 31.23256 | -92.75846 | 35926 ft | 374 kts | 296° |
| 2026-05-05 20:30 | 31.25817 | -92.81140 | 35922 ft | 374 kts | 296° |
| 2026-05-05 20:31 | 31.27948 | -92.85547 | 35917 ft | 374 kts | 296° |
| 2026-05-05 20:31 | 31.30509 | -92.90843 | 35912 ft | 374 kts | 296° |
| 2026-05-05 20:32 | 31.33061 | -92.96151 | 35909 ft | 375 kts | 296° |
| 2026-05-05 20:32 | 31.35621 | -93.01462 | 35908 ft | 375 kts | 296° |
| 2026-05-05 20:33 | 31.38175 | -93.06782 | 35909 ft | 375 kts | 296° |
| 2026-05-05 20:33 | 31.40729 | -93.12109 | 35909 ft | 375 kts | 296° |
| 2026-05-05 20:34 | 31.43277 | -93.17441 | 35907 ft | 375 kts | 296° |
| 2026-05-05 20:34 | 31.45832 | -93.22773 | 35909 ft | 375 kts | 296° |
| 2026-05-05 20:35 | 31.48386 | -93.28093 | 35912 ft | 374 kts | 296° |
| 2026-05-05 20:35 | 31.50917 | -93.33422 | 35910 ft | 374 kts | 295° |
| 2026-05-05 20:36 | 31.53450 | -93.38755 | 35909 ft | 374 kts | 296° |
| 2026-05-05 20:36 | 31.55984 | -93.44089 | 35907 ft | 375 kts | 295° |
| 2026-05-05 20:37 | 31.58522 | -93.49427 | 35907 ft | 375 kts | 296° |
| 2026-05-05 20:37 | 31.60877 | -93.54849 | 35904 ft | 372 kts | 287° |
| 2026-05-05 20:38 | 31.62350 | -93.60644 | 35904 ft | 371 kts | 285° |
| 2026-05-05 20:38 | 31.63807 | -93.66451 | 35901 ft | 371 kts | 285° |
| 2026-05-05 20:39 | 31.65267 | -93.72254 | 35901 ft | 371 kts | 285° |
| 2026-05-05 20:39 | 31.66730 | -93.78044 | 35899 ft | 370 kts | 285° |
| 2026-05-05 20:40 | 31.68195 | -93.83851 | 35895 ft | 371 kts | 285° |
| 2026-05-05 20:40 | 31.69646 | -93.89653 | 35892 ft | 371 kts | 285° |
| 2026-05-05 20:41 | 31.71086 | -93.95458 | 35887 ft | 370 kts | 285° |
| 2026-05-05 20:41 | 31.72531 | -94.01252 | 35884 ft | 370 kts | 285° |
| 2026-05-05 20:42 | 31.73967 | -94.07015 | 35875 ft | 370 kts | 285° |
| 2026-05-05 20:42 | 31.75407 | -94.12813 | 35879 ft | 370 kts | 285° |
| 2026-05-05 20:43 | 31.76857 | -94.18604 | 35866 ft | 369 kts | 285° |
| 2026-05-05 20:43 | 31.78298 | -94.24404 | 35865 ft | 370 kts | 285° |
| 2026-05-05 20:44 | 31.79728 | -94.30199 | 35863 ft | 370 kts | 285° |
| 2026-05-05 20:44 | 31.81151 | -94.36010 | 35865 ft | 370 kts | 284° |
| 2026-05-05 20:45 | 31.83272 | -94.44730 | 35858 ft | 370 kts | 285° |
| 2026-05-05 20:45 | 31.84700 | -94.50549 | 35848 ft | 370 kts | 284° |
| 2026-05-05 20:46 | 31.86121 | -94.56369 | 35851 ft | 371 kts | 284° |
| 2026-05-05 20:46 | 31.87540 | -94.62200 | 35842 ft | 371 kts | 284° |
| 2026-05-05 20:47 | 31.88951 | -94.68037 | 35847 ft | 370 kts | 284° |
| 2026-05-05 20:47 | 31.90364 | -94.73866 | 35849 ft | 371 kts | 284° |
| 2026-05-05 20:48 | 31.91769 | -94.79662 | 35840 ft | 371 kts | 284° |
| 2026-05-05 20:48 | 31.93186 | -94.85511 | 35828 ft | 371 kts | 284° |
| 2026-05-05 20:49 | 31.94591 | -94.91353 | 35824 ft | 372 kts | 284° |
| 2026-05-05 20:49 | 31.95991 | -94.97219 | 35818 ft | 372 kts | 284° |
| 2026-05-05 20:50 | 31.97398 | -95.03079 | 35818 ft | 372 kts | 284° |
| 2026-05-05 20:50 | 31.98804 | -95.08935 | 35818 ft | 372 kts | 284° |
| 2026-05-05 20:51 | 32.00201 | -95.14790 | 35817 ft | 371 kts | 283° |
| 2026-05-05 20:51 | 32.01592 | -95.20633 | 35824 ft | 370 kts | 283° |
| 2026-05-05 20:52 | 32.02979 | -95.26461 | 35825 ft | 368 kts | 283° |
| 2026-05-05 20:52 | 32.04364 | -95.32268 | 35824 ft | 368 kts | 283° |
| 2026-05-05 20:53 | 32.05731 | -95.38033 | 35821 ft | 367 kts | 283° |
| 2026-05-05 20:53 | 32.07105 | -95.43865 | 35819 ft | 367 kts | 283° |
| 2026-05-05 20:54 | 32.08460 | -95.49629 | 35815 ft | 367 kts | 283° |
| 2026-05-05 20:54 | 32.09822 | -95.55426 | 35813 ft | 367 kts | 283° |
| 2026-05-05 20:55 | 32.11194 | -95.61257 | 35811 ft | 367 kts | 283° |
| 2026-05-05 20:55 | 32.12548 | -95.67028 | 35807 ft | 367 kts | 283° |
| 2026-05-05 20:56 | 32.13904 | -95.72830 | 35802 ft | 367 kts | 283° |
| 2026-05-05 20:56 | 32.14582 | -95.75735 | 35686 ft | 367 kts | 282° |
| 2026-05-05 20:56 | 32.15264 | -95.78661 | 34750 ft | 373 kts | 282° |
| 2026-05-05 20:57 | 32.15957 | -95.81638 | 33749 ft | 379 kts | 282° |
| 2026-05-05 20:57 | 32.16662 | -95.84660 | 32736 ft | 384 kts | 283° |
| 2026-05-05 20:57 | 32.17372 | -95.87711 | 31712 ft | 389 kts | 283° |
| 2026-05-05 20:57 | 32.18086 | -95.90809 | 30667 ft | 393 kts | 283° |
| 2026-05-05 20:58 | 32.18797 | -95.93897 | 29756 ft | 385 kts | 283° |
| 2026-05-05 20:58 | 32.19494 | -95.96908 | 29308 ft | 378 kts | 284° |
| 2026-05-05 20:58 | 32.20188 | -95.99909 | 28807 ft | 378 kts | 284° |
| 2026-05-05 20:58 | 32.20875 | -96.02889 | 28254 ft | 374 kts | 284° |
| 2026-05-05 20:59 | 32.21553 | -96.05831 | 27712 ft | 370 kts | 284° |
| 2026-05-05 20:59 | 32.22229 | -96.08752 | 27182 ft | 366 kts | 284° |
| 2026-05-05 20:59 | 32.22895 | -96.11633 | 26648 ft | 362 kts | 284° |
| 2026-05-05 20:59 | 32.23554 | -96.14496 | 26117 ft | 360 kts | 283° |
| 2026-05-05 21:00 | 32.24204 | -96.17334 | 25592 ft | 356 kts | 283° |
| 2026-05-05 21:00 | 32.24849 | -96.20144 | 25072 ft | 353 kts | 283° |
| 2026-05-05 21:00 | 32.25487 | -96.22940 | 24553 ft | 350 kts | 283° |
| 2026-05-05 21:00 | 32.26121 | -96.25706 | 24045 ft | 348 kts | 283° |
| 2026-05-05 21:01 | 32.26752 | -96.28458 | 23527 ft | 346 kts | 283° |
| 2026-05-05 21:01 | 32.27526 | -96.31141 | 23032 ft | 346 kts | 291° |
| 2026-05-05 21:01 | 32.28769 | -96.33588 | 22497 ft | 350 kts | 302° |
| 2026-05-05 21:01 | 32.30435 | -96.35716 | 21900 ft | 356 kts | 309° |
| 2026-05-05 21:02 | 32.32217 | -96.37757 | 21303 ft | 356 kts | 309° |
| 2026-05-05 21:02 | 32.33996 | -96.39798 | 20703 ft | 357 kts | 309° |
| 2026-05-05 21:02 | 32.35780 | -96.41842 | 20110 ft | 358 kts | 309° |
| 2026-05-05 21:02 | 32.37569 | -96.43892 | 19533 ft | 358 kts | 309° |
| 2026-05-05 21:03 | 32.39346 | -96.45929 | 18949 ft | 357 kts | 309° |
| 2026-05-05 21:03 | 32.41124 | -96.47974 | 18390 ft | 355 kts | 309° |
| 2026-05-05 21:03 | 32.42889 | -96.50009 | 17892 ft | 352 kts | 309° |
| 2026-05-05 21:03 | 32.44639 | -96.52027 | 17396 ft | 350 kts | 309° |
| 2026-05-05 21:04 | 32.46346 | -96.53993 | 17130 ft | 341 kts | 309° |
| 2026-05-05 21:04 | 32.48025 | -96.55920 | 16905 ft | 332 kts | 309° |
| 2026-05-05 21:04 | 32.49662 | -96.57803 | 16625 ft | 327 kts | 308° |
| 2026-05-05 21:04 | 32.51288 | -96.59673 | 16343 ft | 324 kts | 308° |
| 2026-05-05 21:05 | 32.52907 | -96.61530 | 15953 ft | 323 kts | 309° |
| 2026-05-05 21:05 | 32.54521 | -96.63381 | 15543 ft | 322 kts | 308° |
| 2026-05-05 21:05 | 32.56124 | -96.65222 | 15148 ft | 321 kts | 309° |
| 2026-05-05 21:05 | 32.57733 | -96.67063 | 14563 ft | 325 kts | 309° |
| 2026-05-05 21:06 | 32.59380 | -96.68928 | 14118 ft | 325 kts | 310° |
| 2026-05-05 21:06 | 32.61011 | -96.70758 | 13864 ft | 319 kts | 309° |
| 2026-05-05 21:06 | 32.62590 | -96.72522 | 13726 ft | 304 kts | 309° |
| 2026-05-05 21:06 | 32.64093 | -96.74194 | 13521 ft | 290 kts | 309° |
| 2026-05-05 21:07 | 32.65543 | -96.75817 | 13107 ft | 284 kts | 309° |
| 2026-05-05 21:07 | 32.66960 | -96.77418 | 12921 ft | 280 kts | 308° |
| 2026-05-05 21:07 | 32.68359 | -96.79013 | 12817 ft | 279 kts | 308° |
| 2026-05-05 21:07 | 32.69760 | -96.80612 | 12715 ft | 279 kts | 309° |
| 2026-05-05 21:08 | 32.71157 | -96.82208 | 12614 ft | 278 kts | 308° |
| 2026-05-05 21:08 | 32.72554 | -96.83800 | 12502 ft | 278 kts | 309° |
| 2026-05-05 21:08 | 32.73953 | -96.85394 | 12397 ft | 278 kts | 309° |
| 2026-05-05 21:08 | 32.75350 | -96.86985 | 12297 ft | 278 kts | 309° |
| 2026-05-05 21:09 | 32.76724 | -96.88543 | 12197 ft | 270 kts | 308° |
| 2026-05-05 21:09 | 32.78074 | -96.90054 | 12089 ft | 264 kts | 311° |
| 2026-05-05 21:09 | 32.79667 | -96.91160 | 11984 ft | 271 kts | 333° |
| 2026-05-05 21:09 | 32.81562 | -96.91511 | 11718 ft | 284 kts | 353° |
| 2026-05-05 21:10 | 32.83541 | -96.91487 | 11454 ft | 284 kts | 353° |
| 2026-05-05 21:10 | 32.85515 | -96.91463 | 11185 ft | 283 kts | 353° |
| 2026-05-05 21:10 | 32.87474 | -96.91443 | 10924 ft | 281 kts | 353° |
| 2026-05-05 21:10 | 32.89431 | -96.91426 | 10664 ft | 281 kts | 353° |
| 2026-05-05 21:11 | 32.91393 | -96.91412 | 10332 ft | 282 kts | 353° |
| 2026-05-05 21:11 | 32.93368 | -96.91407 | 9956 ft | 285 kts | 353° |
| 2026-05-05 21:11 | 32.95362 | -96.91403 | 9575 ft | 288 kts | 354° |
| 2026-05-05 21:11 | 32.97378 | -96.91393 | 9205 ft | 291 kts | 354° |
| 2026-05-05 21:12 | 32.99415 | -96.91379 | 8824 ft | 292 kts | 355° |
| 2026-05-05 21:12 | 33.01448 | -96.91363 | 8457 ft | 294 kts | 355° |
| 2026-05-05 21:12 | 33.03498 | -96.91344 | 8028 ft | 296 kts | 355° |
| 2026-05-05 21:12 | 33.05552 | -96.91324 | 7517 ft | 294 kts | 355° |
| 2026-05-05 21:13 | 33.07585 | -96.91305 | 6959 ft | 291 kts | 355° |
| 2026-05-05 21:13 | 33.09606 | -96.91287 | 6352 ft | 291 kts | 355° |
| 2026-05-05 21:13 | 33.11627 | -96.91273 | 5751 ft | 290 kts | 356° |
| 2026-05-05 21:13 | 33.13633 | -96.91245 | 5306 ft | 283 kts | 356° |
| 2026-05-05 21:14 | 33.15555 | -96.91219 | 5028 ft | 269 kts | 356° |
| 2026-05-05 21:14 | 33.17351 | -96.91184 | 4997 ft | 246 kts | 356° |
| 2026-05-05 21:14 | 33.18970 | -96.91457 | 5005 ft | 229 kts | 334° |
| 2026-05-05 21:14 | 33.20285 | -96.92394 | 5006 ft | 213 kts | 310° |
| 2026-05-05 21:15 | 33.21127 | -96.93733 | 5011 ft | 194 kts | 290° |
| 2026-05-05 21:15 | 33.21492 | -96.95227 | 5025 ft | 185 kts | 271° |
| 2026-05-05 21:15 | 33.21421 | -96.96734 | 5026 ft | 181 kts | 254° |
| 2026-05-05 21:15 | 33.20948 | -96.98119 | 5030 ft | 184 kts | 237° |
| 2026-05-05 21:16 | 33.20088 | -96.99275 | 5027 ft | 189 kts | 219° |
| 2026-05-05 21:16 | 33.18930 | -97.00052 | 5029 ft | 193 kts | 207° |
| 2026-05-05 21:16 | 33.17716 | -97.00716 | 5014 ft | 192 kts | 207° |
| 2026-05-05 21:16 | 33.16504 | -97.01392 | 5016 ft | 193 kts | 208° |
| 2026-05-05 21:17 | 33.15291 | -97.02072 | 5015 ft | 192 kts | 208° |
| 2026-05-05 21:17 | 33.13995 | -97.02478 | 4878 ft | 197 kts | 185° |
| 2026-05-05 21:17 | 33.13081 | -97.02479 | 4728 ft | 199 kts | 185° |
| 2026-05-05 21:17 | 33.11688 | -97.02487 | 4474 ft | 200 kts | 185° |
| 2026-05-05 21:18 | 33.10296 | -97.02495 | 4215 ft | 201 kts | 184° |
| 2026-05-05 21:18 | 33.08898 | -97.02503 | 3948 ft | 202 kts | 184° |
| 2026-05-05 21:18 | 33.07026 | -97.02513 | 3587 ft | 204 kts | 184° |
| 2026-05-05 21:18 | 33.05606 | -97.02520 | 3315 ft | 205 kts | 184° |
| 2026-05-05 21:19 | 33.04174 | -97.02529 | 3040 ft | 206 kts | 184° |
| 2026-05-05 21:19 | 33.03207 | -97.02534 | 2855 ft | 206 kts | 184° |
| 2026-05-05 21:19 | 33.01766 | -97.02542 | 2576 ft | 207 kts | 183° |
| 2026-05-05 21:19 | 33.00337 | -97.02549 | 2300 ft | 200 kts | 183° |
| 2026-05-05 21:20 | 32.98994 | -97.02556 | 2058 ft | 187 kts | 183° |
| 2026-05-05 21:20 | 32.97720 | -97.02562 | 1795 ft | 179 kts | 182° |
| 2026-05-05 21:20 | 32.96503 | -97.02570 | 1568 ft | 170 kts | 182° |
| 2026-05-05 21:20 | 32.95373 | -97.02575 | 1355 ft | 153 kts | 182° |
| 2026-05-05 21:21 | 32.94369 | -97.02578 | 1154 ft | 138 kts | 182° |
| 2026-05-05 21:21 | 32.93436 | -97.02594 | 887 ft | 131 kts | 179° |
| 2026-05-05 21:21 | 32.92531 | -97.02596 | 744 ft | 130 kts | 181° |
| 2026-05-05 21:21 | 32.91636 | -97.02588 | 608 ft | 128 kts | 183° |
| 2026-05-05 21:22 | 32.90828 | -97.02612 | 570 ft | 94 kts | 182° |
| 2026-05-05 21:22 | 32.90337 | -97.02612 | 576 ft | 59 kts | 179° |
| 2026-05-05 21:22 | 32.90057 | -97.02620 | 572 ft | 29 kts | 190° |
| 2026-05-05 21:22 | 32.89880 | -97.02717 | 571 ft | 28 kts | 210° |
| 2026-05-05 21:23 | 32.89743 | -97.02800 | 570 ft | 18 kts | 192° |
| 2026-05-05 21:23 | 32.89614 | -97.02807 | 572 ft | 19 kts | 178° |
| 2026-05-05 21:23 | 32.89481 | -97.02803 | 570 ft | 19 kts | 179° |
| 2026-05-05 21:23 | 32.89394 | -97.02867 | 573 ft | 14 kts | 256° |
| 2026-05-05 21:24 | 32.89394 | -97.02975 | 576 ft | 13 kts | 270° |
| 2026-05-05 21:24 | 32.89394 | -97.03084 | 576 ft | 14 kts | 266° |
| 2026-05-05 21:24 | 32.89395 | -97.03208 | 578 ft | 15 kts | 271° |
| 2026-05-05 21:24 | 32.89403 | -97.03293 | 584 ft | 7 kts | 300° |
| 2026-05-05 21:25 | 32.89497 | -97.03320 | 586 ft | 25 kts | 4° |
| 2026-05-05 21:25 | 32.89669 | -97.03316 | 586 ft | 20 kts | 360° |
| 2026-05-05 21:25 | 32.89793 | -97.03315 | 586 ft | 14 kts | 0° |
| 2026-05-05 21:25 | 32.89841 | -97.03360 | 587 ft | 9 kts | 286° |
| 2026-05-05 21:26 | 32.89840 | -97.03444 | 587 ft | 11 kts | 260° |
| 2026-05-05 21:26 | 32.89800 | -97.03516 | 587 ft | 3 kts | 236° |
| 2026-05-05 21:26 | 32.89798 | -97.03520 | 587 ft | 0 kts | 236° |